createdAt,value
2022-07-26T00:00:49.506Z,7.80
2022-07-26T00:03:53.311Z,7.55
2022-07-26T00:06:56.561Z,7.97
2022-07-26T00:09:59.920Z,7.35
2022-07-26T00:13:04.698Z,7.53
2022-07-26T00:16:10.190Z,7.80
2022-07-26T00:19:13.713Z,7.93
2022-07-26T00:22:35.566Z,7.55
2022-07-26T00:25:39.774Z,7.40
2022-07-26T00:28:44.606Z,7.53
2022-07-26T00:31:50.735Z,7.57
2022-07-26T00:34:55.860Z,6.95
2022-07-26T00:37:59.565Z,7.80
2022-07-26T00:41:03.178Z,7.60
2022-07-26T00:44:08.171Z,7.75
2022-07-26T00:47:11.755Z,7.35
2022-07-26T00:50:18.091Z,7.47
2022-07-26T00:53:22.423Z,7.22
2022-07-26T00:56:28.222Z,7.28
2022-07-26T00:59:33.179Z,7.45
2022-07-26T01:02:38.917Z,7.38
2022-07-26T01:05:42.696Z,7.55
2022-07-26T01:08:46.326Z,7.22
2022-07-26T01:11:50.887Z,7.55
2022-07-26T01:14:55.684Z,7.30
2022-07-26T01:17:59.055Z,7.55
2022-07-26T01:21:09.093Z,7.47
2022-07-26T01:24:20.028Z,7.15
2022-07-26T01:27:24.680Z,6.88
2022-07-26T01:30:28.022Z,6.72
2022-07-26T01:33:31.507Z,6.72
2022-07-26T01:36:35.025Z,7.25
2022-07-26T01:39:40.037Z,7.13
2022-07-26T01:42:43.386Z,6.95
2022-07-26T01:45:47.144Z,6.72
2022-07-26T01:48:50.702Z,6.88
2022-07-26T01:51:56.564Z,6.40
2022-07-26T01:55:01.345Z,6.28
2022-07-26T01:58:05.268Z,6.38
2022-07-26T02:01:11.564Z,6.60
2022-07-26T02:04:35.908Z,6.60
2022-07-26T02:07:44.514Z,6.72
2022-07-26T02:11:04.805Z,6.75
2022-07-26T02:14:09.133Z,6.35
2022-07-26T02:17:13.673Z,6.30
2022-07-26T02:20:17.687Z,6.28
2022-07-26T02:23:23.697Z,6.72
2022-07-26T02:26:28.552Z,6.15
2022-07-26T02:29:32.380Z,5.85
2022-07-26T02:32:35.655Z,6.05
2022-07-26T02:35:41.505Z,6.32
2022-07-26T02:38:44.836Z,5.55
2022-07-26T02:41:50.463Z,5.88
2022-07-26T02:44:54.206Z,5.80
2022-07-26T02:47:57.885Z,5.45
2022-07-26T02:51:04.234Z,5.80
2022-07-26T02:54:07.846Z,5.70
2022-07-26T02:57:13.835Z,6.18
2022-07-26T03:00:19.742Z,6.10
2022-07-26T03:03:23.091Z,5.68
2022-07-26T03:06:27.720Z,5.57
2022-07-26T03:09:31.043Z,5.57
2022-07-26T03:12:35.914Z,5.75
2022-07-26T03:15:39.249Z,5.63
2022-07-26T03:18:42.559Z,6.57
2022-07-26T03:21:45.873Z,10.75
2022-07-26T03:24:49.219Z,11.50
2022-07-26T03:27:57.088Z,11.70
2022-07-26T03:31:01.468Z,12.55
2022-07-26T03:34:05.420Z,11.60
2022-07-26T03:37:09.144Z,10.63
2022-07-26T03:40:17.417Z,10.57
2022-07-26T03:43:23.376Z,10.27
2022-07-26T03:46:26.912Z,9.10
2022-07-26T03:49:30.372Z,9.55
2022-07-26T03:52:33.812Z,9.77
2022-07-26T03:56:00.013Z,10.25
2022-07-26T03:59:07.508Z,10.13
2022-07-26T04:02:10.872Z,8.93
2022-07-26T04:05:14.287Z,10.40
2022-07-26T04:08:18.261Z,10.27
2022-07-26T04:11:21.881Z,10.63
2022-07-26T04:14:31.391Z,10.40
2022-07-26T04:17:39.273Z,10.20
2022-07-26T04:20:43.005Z,10.65
2022-07-26T04:23:50.972Z,11.40
2022-07-26T04:26:54.755Z,11.90
2022-07-26T04:29:59.788Z,11.57
2022-07-26T04:33:03.485Z,12.35
2022-07-26T04:36:07.431Z,11.63
2022-07-26T04:39:11.349Z,12.13
2022-07-26T04:42:14.663Z,12.85
2022-07-26T04:45:20.134Z,11.85
2022-07-26T04:48:23.514Z,11.25
2022-07-26T04:51:26.930Z,11.90
2022-07-26T04:54:30.239Z,12.25
2022-07-26T04:57:33.527Z,12.10
2022-07-26T05:04:03.223Z,11.70
2022-07-26T05:07:06.561Z,12.13
2022-07-26T05:10:11.039Z,11.93
2022-07-26T05:13:14.470Z,11.60
2022-07-26T05:16:19.457Z,12.80
2022-07-26T05:19:23.016Z,11.90
2022-07-26T05:22:26.432Z,12.00
2022-07-26T05:25:30.074Z,12.00
2022-07-26T05:28:33.404Z,14.68
2022-07-26T05:31:38.199Z,13.65
2022-07-26T05:34:41.505Z,13.60
2022-07-26T05:37:45.002Z,12.35
2022-07-26T05:40:50.638Z,11.82
2022-07-26T05:43:54.408Z,13.75
2022-07-26T05:46:59.164Z,14.10
2022-07-26T05:50:02.859Z,13.00
2022-07-26T05:53:06.248Z,12.38
2022-07-26T05:56:10.822Z,12.38
2022-07-26T05:59:14.318Z,12.85
2022-07-26T06:02:19.121Z,13.98
2022-07-26T06:05:22.475Z,12.18
2022-07-26T06:08:26.989Z,11.85
2022-07-26T06:11:30.290Z,12.13
2022-07-26T06:14:33.612Z,12.43
2022-07-26T06:17:42.106Z,11.52
2022-07-26T06:20:47.864Z,11.80
2022-07-26T06:23:51.476Z,12.07
2022-07-26T06:26:58.109Z,13.13
2022-07-26T06:30:10.564Z,12.35
2022-07-26T06:33:15.331Z,13.18
2022-07-26T06:36:18.969Z,12.75
2022-07-26T06:39:22.441Z,13.02
2022-07-26T06:42:25.855Z,13.40
2022-07-26T06:45:29.619Z,12.85
2022-07-26T06:48:34.605Z,13.07
2022-07-26T06:51:38.529Z,13.85
2022-07-26T06:54:41.931Z,16.50
2022-07-26T06:57:50.318Z,14.63
2022-07-26T07:00:54.010Z,14.10
2022-07-26T07:03:58.865Z,15.77
2022-07-26T07:07:06.106Z,12.90
2022-07-26T07:10:10.326Z,16.67
2022-07-26T07:13:15.891Z,14.07
2022-07-26T07:16:19.249Z,12.80
2022-07-26T07:19:24.160Z,13.68
2022-07-26T07:22:27.596Z,12.65
2022-07-26T07:25:31.184Z,12.57
2022-07-26T07:28:38.501Z,14.23
2022-07-26T07:31:48.581Z,13.40
2022-07-26T07:34:54.116Z,13.65
2022-07-26T07:37:57.567Z,14.30
2022-07-26T07:41:00.908Z,13.63
2022-07-26T07:44:04.307Z,13.25
2022-07-26T07:47:09.038Z,14.30
2022-07-26T07:50:13.877Z,14.07
2022-07-26T07:53:17.345Z,13.95
2022-07-26T07:56:23.502Z,14.50
2022-07-26T07:59:27.440Z,13.45
2022-07-26T08:02:32.176Z,14.02
2022-07-26T08:05:40.420Z,13.15
2022-07-26T08:08:44.312Z,13.88
2022-07-26T08:11:50.509Z,13.18
2022-07-26T08:14:54.595Z,13.82
2022-07-26T08:17:57.954Z,13.45
2022-07-26T08:21:04.152Z,13.27
2022-07-26T08:24:08.339Z,13.35
2022-07-26T08:27:11.704Z,12.82
2022-07-26T08:30:15.426Z,13.48
2022-07-26T08:33:18.669Z,12.35
2022-07-26T08:36:23.947Z,13.27
2022-07-26T08:39:27.392Z,13.45
2022-07-26T08:42:30.789Z,14.25
2022-07-26T08:45:34.356Z,13.85
2022-07-26T08:48:38.749Z,14.05
2022-07-26T08:51:44.995Z,14.30
2022-07-26T08:54:50.499Z,14.50
2022-07-26T08:57:53.905Z,13.63
2022-07-26T09:01:08.318Z,14.48
2022-07-26T09:04:44.026Z,13.68
2022-07-26T09:07:47.509Z,14.73
2022-07-26T09:10:50.901Z,13.93
2022-07-26T09:13:56.372Z,14.15
2022-07-26T09:17:00.966Z,14.27
2022-07-26T09:20:14.500Z,13.38
2022-07-26T09:23:19.370Z,14.40
2022-07-26T09:26:22.852Z,13.15
2022-07-26T09:29:26.224Z,14.82
2022-07-26T09:32:29.662Z,14.50
2022-07-26T09:35:51.040Z,14.60
2022-07-26T09:38:59.215Z,14.35
2022-07-26T09:45:34.654Z,12.70
2022-07-26T09:49:09.251Z,12.60
2022-07-26T09:52:02.977Z,12.70
2022-07-26T09:55:09.407Z,12.98
2022-07-26T09:58:14.649Z,12.80
2022-07-26T10:01:18.065Z,12.98
2022-07-26T10:04:23.374Z,12.95
2022-07-26T10:07:26.758Z,12.40
2022-07-26T10:10:34.819Z,12.07
2022-07-26T10:13:39.757Z,11.98
2022-07-26T10:16:43.130Z,12.00
2022-07-26T10:19:47.532Z,11.30
2022-07-26T10:22:51.228Z,12.00
2022-07-26T10:25:56.004Z,12.23
2022-07-26T10:29:25.859Z,11.07
2022-07-26T10:32:33.060Z,11.63
2022-07-26T10:35:40.869Z,11.82
2022-07-26T10:38:59.765Z,11.23
2022-07-26T10:42:06.587Z,10.95
2022-07-26T10:45:18.883Z,10.63
2022-07-26T10:48:24.962Z,11.20
2022-07-26T10:51:30.938Z,10.60
2022-07-26T10:54:34.312Z,10.57
2022-07-26T10:57:40.394Z,10.18
2022-07-26T11:00:56.205Z,10.27
2022-07-26T11:03:59.739Z,10.48
2022-07-26T11:07:03.139Z,9.68
2022-07-26T11:10:07.141Z,10.35
2022-07-26T11:13:19.665Z,10.10
2022-07-26T11:16:23.530Z,10.20
2022-07-26T11:19:29.414Z,10.25
2022-07-26T11:22:33.067Z,11.45
2022-07-26T11:25:36.333Z,9.68
2022-07-26T11:28:55.352Z,10.35
2022-07-26T11:32:04.654Z,9.88
2022-07-26T11:35:19.895Z,10.48
2022-07-26T11:38:24.546Z,8.85
2022-07-26T11:41:34.563Z,8.40
2022-07-26T11:44:44.290Z,8.93
2022-07-26T11:47:48.087Z,8.70
2022-07-26T11:50:51.616Z,8.55
2022-07-26T11:53:59.866Z,8.60
2022-07-26T11:57:05.998Z,7.82
2022-07-26T12:00:12.639Z,8.93
2022-07-26T12:03:15.967Z,8.13
2022-07-26T12:06:20.964Z,9.75
2022-07-26T12:09:32.728Z,9.23
2022-07-26T12:12:36.161Z,9.23
2022-07-26T12:15:48.498Z,9.05
2022-07-26T12:18:52.789Z,8.68
2022-07-26T12:21:58.508Z,9.07
2022-07-26T12:25:02.243Z,9.23
2022-07-26T12:28:07.769Z,9.10
2022-07-26T12:31:25.689Z,9.27
2022-07-26T12:34:29.124Z,9.02
2022-07-26T12:37:40.401Z,9.35
2022-07-26T12:40:44.356Z,9.30
2022-07-26T12:43:49.863Z,9.52
2022-07-26T12:46:54.664Z,8.80
2022-07-26T12:49:57.996Z,9.13
2022-07-26T12:53:02.894Z,9.30
2022-07-26T12:56:06.762Z,9.13
2022-07-26T12:59:12.281Z,8.90
2022-07-26T13:02:23.367Z,9.48
2022-07-26T13:05:27.034Z,9.07
2022-07-26T13:08:36.411Z,8.70
2022-07-26T13:11:39.756Z,9.60
2022-07-26T13:14:43.343Z,9.65
2022-07-26T13:17:48.094Z,9.52
2022-07-26T13:20:51.573Z,9.60
2022-07-26T13:23:54.978Z,9.32
2022-07-26T13:27:00.396Z,9.13
2022-07-26T13:30:03.762Z,9.48
2022-07-26T13:33:08.505Z,9.85
2022-07-26T13:36:11.832Z,9.88
2022-07-26T13:39:15.227Z,8.98
2022-07-26T13:42:19.461Z,9.45
2022-07-26T13:45:22.837Z,9.55
2022-07-26T13:48:29.257Z,9.20
2022-07-26T13:51:51.700Z,9.68
2022-07-26T13:54:55.141Z,9.85
2022-07-26T13:57:58.633Z,10.05
2022-07-26T14:01:03.349Z,9.30
2022-07-26T14:04:10.194Z,10.00
2022-07-26T14:07:13.857Z,10.00
2022-07-26T14:10:17.212Z,9.15
2022-07-26T14:13:20.634Z,9.70
2022-07-26T14:16:27.631Z,10.15
2022-07-26T14:19:32.461Z,9.27
2022-07-26T14:22:35.861Z,9.75
2022-07-26T14:25:39.144Z,9.80
2022-07-26T14:28:45.070Z,9.70
2022-07-26T14:31:48.327Z,10.05
2022-07-26T14:34:53.083Z,8.73
2022-07-26T14:37:56.544Z,9.27
2022-07-26T14:41:01.216Z,10.38
2022-07-26T14:44:05.577Z,9.82
2022-07-26T14:47:08.892Z,9.63
2022-07-26T14:50:15.826Z,9.90
2022-07-26T14:53:19.787Z,10.18
2022-07-26T14:56:23.491Z,9.48
2022-07-26T14:59:26.854Z,9.95
2022-07-26T15:02:30.251Z,9.90
2022-07-26T15:05:35.241Z,9.70
2022-07-26T15:08:38.628Z,9.23
2022-07-26T15:11:42.046Z,10.23
2022-07-26T15:14:46.281Z,10.35
2022-07-26T15:17:49.565Z,9.60
2022-07-26T15:20:54.359Z,9.88
2022-07-26T15:23:57.679Z,10.00
2022-07-26T15:27:01.024Z,9.98
2022-07-26T15:30:10.255Z,10.13
2022-07-26T15:33:18.237Z,10.20
2022-07-26T15:36:22.878Z,10.07
2022-07-26T15:39:26.315Z,9.10
2022-07-26T15:42:32.155Z,10.02
2022-07-26T15:45:37.497Z,9.73
2022-07-26T15:48:41.015Z,9.68
2022-07-26T15:51:46.061Z,9.73
2022-07-26T15:54:49.551Z,9.93
2022-07-26T15:57:52.834Z,9.75
2022-07-26T16:00:56.173Z,9.88
2022-07-26T16:03:59.568Z,8.93
2022-07-26T16:07:04.423Z,8.52
2022-07-26T16:10:08.987Z,8.77
2022-07-26T16:13:12.387Z,9.48
2022-07-26T16:16:15.884Z,8.60
2022-07-26T16:19:19.344Z,9.35
2022-07-26T16:22:24.408Z,8.35
2022-07-26T16:25:27.888Z,8.82
2022-07-26T16:28:31.231Z,13.20
2022-07-26T16:31:34.703Z,8.55
2022-07-26T16:34:38.232Z,8.82
2022-07-26T16:37:43.037Z,8.13
2022-07-26T16:40:46.353Z,10.55
2022-07-26T16:43:50.634Z,16.05
2022-07-26T16:46:54.202Z,12.13
2022-07-26T16:49:57.642Z,10.20
2022-07-26T16:53:02.487Z,10.15
2022-07-26T16:56:06.374Z,8.57
2022-07-26T16:59:10.631Z,9.20
2022-07-26T17:02:14.228Z,11.52
2022-07-26T17:05:17.604Z,10.65
2022-07-26T17:08:22.964Z,20.42
2022-07-26T17:11:26.265Z,14.70
2022-07-26T17:14:29.685Z,11.50
2022-07-26T17:17:32.996Z,9.57
2022-07-26T17:20:36.384Z,15.02
2022-07-26T17:23:41.173Z,10.70
2022-07-26T17:26:44.518Z,10.93
2022-07-26T17:29:48.051Z,10.02
2022-07-26T17:32:52.276Z,9.00
2022-07-26T17:35:56.508Z,11.60
2022-07-26T17:39:06.063Z,11.68
2022-07-26T17:42:11.777Z,10.43
2022-07-26T17:45:18.291Z,14.40
2022-07-26T17:48:21.571Z,13.73
2022-07-26T17:51:24.845Z,12.13
2022-07-26T17:54:29.593Z,11.73
2022-07-26T17:57:32.958Z,11.30
2022-07-26T18:00:36.420Z,9.90
2022-07-26T18:03:39.874Z,10.00
2022-07-26T18:06:43.602Z,10.32
2022-07-26T18:09:48.365Z,9.68
2022-07-26T18:12:51.664Z,9.45
2022-07-26T18:15:55.352Z,10.05
2022-07-26T18:18:58.750Z,10.05
2022-07-26T18:22:05.908Z,9.82
2022-07-26T18:25:11.775Z,10.48
2022-07-26T18:28:16.071Z,11.70
2022-07-26T18:31:19.731Z,10.68
2022-07-26T18:34:23.152Z,10.93
2022-07-26T18:37:26.546Z,11.48
2022-07-26T18:40:32.399Z,11.10
2022-07-26T18:43:35.797Z,11.13
2022-07-26T18:46:39.204Z,11.90
2022-07-26T18:49:43.574Z,11.75
2022-07-26T18:52:47.376Z,11.43
2022-07-26T18:55:52.305Z,11.60
2022-07-26T18:58:55.767Z,12.23
2022-07-26T19:02:00.309Z,10.80
2022-07-26T19:05:04.035Z,10.93
2022-07-26T19:08:07.453Z,13.27
2022-07-26T19:11:12.140Z,11.65
2022-07-26T19:14:15.512Z,11.85
2022-07-26T19:17:18.804Z,11.93
2022-07-26T19:20:22.234Z,11.73
2022-07-26T19:23:25.578Z,12.65
2022-07-26T19:26:31.153Z,13.10
2022-07-26T19:29:34.502Z,13.48
2022-07-26T19:32:38.627Z,12.40
2022-07-26T19:35:41.940Z,11.90
2022-07-26T19:38:45.346Z,12.77
2022-07-26T19:41:59.729Z,14.32
2022-07-26T19:45:03.518Z,15.77
2022-07-26T19:48:07.821Z,15.20
2022-07-26T19:51:11.166Z,16.38
2022-07-26T19:54:14.623Z,16.42
2022-07-26T19:57:19.927Z,14.15
2022-07-26T20:00:23.757Z,11.77
2022-07-26T20:03:27.090Z,11.43
2022-07-26T20:06:30.660Z,10.95
2022-07-26T20:09:36.565Z,11.00
2022-07-26T20:12:42.649Z,11.10
2022-07-26T20:15:47.171Z,12.35
2022-07-26T20:18:50.476Z,12.60
2022-07-26T20:21:53.798Z,12.30
2022-07-26T20:24:57.205Z,12.02
2022-07-26T20:28:01.952Z,11.88
2022-07-26T20:31:05.327Z,12.40
2022-07-26T20:34:08.672Z,12.48
2022-07-26T20:37:11.997Z,12.88
2022-07-26T20:40:17.733Z,13.27
2022-07-26T20:43:22.944Z,13.35
2022-07-26T20:46:26.293Z,13.48
2022-07-26T20:49:29.953Z,13.65
2022-07-26T20:52:33.317Z,13.73
2022-07-26T20:55:37.178Z,13.50
2022-07-26T20:58:42.010Z,13.57
2022-07-26T21:01:45.311Z,12.98
2022-07-26T21:04:48.510Z,12.60
2022-07-26T21:07:58.707Z,12.80
2022-07-26T21:11:03.013Z,13.27
2022-07-26T21:14:07.621Z,13.43
2022-07-26T21:17:12.243Z,15.30
2022-07-26T21:20:15.812Z,12.75
2022-07-26T21:23:19.086Z,13.25
2022-07-26T21:26:23.443Z,11.45
2022-07-26T21:29:27.992Z,9.90
2022-07-26T21:32:31.919Z,9.98
2022-07-26T21:35:35.212Z,10.85
2022-07-26T21:38:38.400Z,10.63
2022-07-26T21:41:41.593Z,8.80
2022-07-26T21:44:46.190Z,10.13
2022-07-26T21:47:49.351Z,11.32
2022-07-26T21:50:52.619Z,9.73
2022-07-26T21:53:55.863Z,9.63
2022-07-26T21:56:59.035Z,10.77
2022-07-26T22:00:03.636Z,8.80
2022-07-26T22:03:10.270Z,9.77
2022-07-26T22:06:13.499Z,10.38
2022-07-26T22:09:16.714Z,10.50
2022-07-26T22:12:19.888Z,10.20
2022-07-26T22:15:24.568Z,11.00
2022-07-26T22:18:28.044Z,13.07
2022-07-26T22:21:31.327Z,14.95
2022-07-26T22:24:34.574Z,13.43
2022-07-26T22:27:37.809Z,12.95
2022-07-26T22:30:42.771Z,13.15
2022-07-26T22:33:45.969Z,13.10
2022-07-26T22:36:49.126Z,13.32
2022-07-26T22:39:52.294Z,12.95
2022-07-26T22:42:58.524Z,12.48
2022-07-26T22:46:03.121Z,11.98
2022-07-26T22:49:06.484Z,11.40
2022-07-26T22:52:15.518Z,11.45
2022-07-26T22:55:18.777Z,12.40
2022-07-26T22:58:22.018Z,12.88
2022-07-26T23:01:26.703Z,12.25
2022-07-26T23:04:29.989Z,11.65
2022-07-26T23:07:52.148Z,11.68
2022-07-26T23:10:55.874Z,12.18
2022-07-26T23:13:59.319Z,14.32
2022-07-26T23:17:04.039Z,12.52
2022-07-26T23:20:09.385Z,11.43
2022-07-26T23:23:12.638Z,11.10
2022-07-26T23:26:15.896Z,10.77
2022-07-26T23:29:19.377Z,10.75
2022-07-26T23:32:24.020Z,10.63
2022-07-26T23:35:27.260Z,11.10
2022-07-26T23:38:30.495Z,10.77
2022-07-26T23:41:33.933Z,10.35
2022-07-26T23:44:38.446Z,9.25
2022-07-26T23:47:43.124Z,10.20
2022-07-26T23:50:46.475Z,10.20
2022-07-26T23:53:49.883Z,9.88
2022-07-26T23:56:53.296Z,10.77
2022-07-26T23:59:56.646Z,9.90
